KLRO

Mt Pleasant Regional-Faison Field Airport

Mount Pleasant, South Carolina, USA
METAR KLRO 230035Z AUTO 00000KT 10SM CLR 14/12 A3026 RMK AO2
Observed Flight Rules
Oct-23 @ 00:35 UTC (26 minutes ago) Visual Flight Rules
Visibility Clouds
10 miles
  • Clear skies
Temperatures Readings
Current 14°C / 57°F
Dewpoint 12°C / 54°F
Humidity 88%
Altimeter 30.26" Hg
Pressure 1025 hPa
Elevation 4
METAR KLRO 230035Z AUTO 00000KT 10SM CLR 14/12 A3026 RMK AO2
Observed Flight Rules
Oct-23 @ 00:35 UTC
(26 minutes ago)
VFR
Clouds
  • Clear skies
Temperature Dewpoint
14°C / 57°F 12°C / 54°F
Humidity Altimeter Pressure
88% 30.26" Hg 1025 hPa